createdAt,value
2018-07-24T00:01:03.542Z,16.80
2018-07-24T00:03:31.696Z,16.90
2018-07-24T00:05:59.932Z,16.90
2018-07-24T00:08:28.080Z,16.90
2018-07-24T00:10:56.347Z,16.90
2018-07-24T00:13:24.529Z,16.80
2018-07-24T00:15:52.712Z,16.70
2018-07-24T00:18:20.976Z,16.70
2018-07-24T00:20:49.119Z,16.80
2018-07-24T00:23:17.304Z,16.70
2018-07-24T00:25:45.484Z,16.70
2018-07-24T00:28:13.683Z,16.70
2018-07-24T00:30:41.888Z,16.80
2018-07-24T00:33:10.092Z,16.80
2018-07-24T00:35:38.312Z,16.70
2018-07-24T00:38:06.761Z,16.70
2018-07-24T00:40:34.952Z,16.60
2018-07-24T00:43:03.117Z,16.60
2018-07-24T00:45:31.344Z,16.60
2018-07-24T00:47:59.535Z,16.70
2018-07-24T00:50:27.713Z,16.70
2018-07-24T00:52:55.922Z,16.70
2018-07-24T00:55:24.073Z,16.80
2018-07-24T00:57:52.272Z,16.80
2018-07-24T01:00:20.444Z,16.80
2018-07-24T01:02:48.651Z,16.80
2018-07-24T01:05:16.798Z,16.80
2018-07-24T01:07:44.987Z,16.90
2018-07-24T01:10:13.184Z,16.80
2018-07-24T01:12:41.384Z,16.80
2018-07-24T01:15:09.604Z,16.80
2018-07-24T01:17:37.832Z,16.60
2018-07-24T01:20:06.141Z,16.50
2018-07-24T01:22:34.392Z,16.50
2018-07-24T01:25:02.617Z,16.50
2018-07-24T01:27:30.792Z,16.50
2018-07-24T01:29:58.954Z,16.50
2018-07-24T01:32:27.177Z,16.40
2018-07-24T01:34:55.370Z,16.40
2018-07-24T01:37:23.577Z,16.30
2018-07-24T01:39:51.790Z,16.30
2018-07-24T01:42:19.965Z,16.20
2018-07-24T01:44:48.170Z,16.20
2018-07-24T01:47:16.344Z,16.10
2018-07-24T01:49:44.553Z,16.10
2018-07-24T01:52:12.832Z,16.10
2018-07-24T01:54:41.009Z,16.20
2018-07-24T01:57:09.205Z,16.10
2018-07-24T01:59:37.396Z,16.10
2018-07-24T02:02:05.624Z,16.10
2018-07-24T02:04:33.776Z,16.10
2018-07-24T02:07:02.001Z,16.00
2018-07-24T02:09:30.232Z,16.00
2018-07-24T02:11:58.400Z,16.10
2018-07-24T02:14:26.602Z,16.10
2018-07-24T02:16:54.829Z,16.00
2018-07-24T02:19:23.028Z,16.00
2018-07-24T02:21:51.268Z,16.10
2018-07-24T02:24:19.495Z,16.10
2018-07-24T02:26:47.704Z,16.20
2018-07-24T02:29:15.878Z,16.20
2018-07-24T02:31:44.127Z,16.00
2018-07-24T02:34:12.329Z,16.00
2018-07-24T02:36:40.621Z,15.90
2018-07-24T02:39:12.051Z,15.90
2018-07-24T02:41:40.256Z,15.90
2018-07-24T02:44:08.520Z,15.90
2018-07-24T02:46:36.756Z,15.90
2018-07-24T02:49:05.246Z,15.90
2018-07-24T02:51:33.528Z,15.90
2018-07-24T02:54:01.749Z,15.80
2018-07-24T02:56:30.069Z,15.80
2018-07-24T02:58:58.313Z,15.80
2018-07-24T03:01:26.780Z,15.80
2018-07-24T03:03:54.984Z,15.80
2018-07-24T03:06:23.239Z,15.70
2018-07-24T03:08:51.453Z,15.70
2018-07-24T03:11:19.657Z,15.70
2018-07-24T03:13:47.857Z,15.60
2018-07-24T03:16:16.106Z,15.60
2018-07-24T03:18:44.258Z,15.50
2018-07-24T03:21:12.481Z,15.60
2018-07-24T03:23:40.789Z,15.60
2018-07-24T03:26:09.082Z,15.60
2018-07-24T03:28:37.293Z,15.70
2018-07-24T03:31:05.590Z,15.70
2018-07-24T03:33:33.780Z,15.80
2018-07-24T03:36:02.006Z,15.70
2018-07-24T03:38:30.241Z,15.70
2018-07-24T03:40:58.413Z,15.60
2018-07-24T03:43:26.606Z,15.70
2018-07-24T03:45:54.776Z,15.70
2018-07-24T03:48:23.025Z,15.70
2018-07-24T03:50:51.240Z,15.70
2018-07-24T03:53:19.400Z,15.60
2018-07-24T03:55:47.594Z,15.50
2018-07-24T03:58:15.764Z,15.40
2018-07-24T04:00:43.945Z,15.40
2018-07-24T04:03:12.138Z,15.40
2018-07-24T04:05:40.311Z,15.40
2018-07-24T04:08:08.513Z,15.40
2018-07-24T04:10:36.716Z,15.50
2018-07-24T04:13:04.888Z,15.50
2018-07-24T04:15:33.085Z,15.60
2018-07-24T04:18:01.281Z,15.70
2018-07-24T04:20:29.502Z,15.70
2018-07-24T04:22:57.741Z,15.80
2018-07-24T04:25:25.912Z,15.80
2018-07-24T04:27:54.169Z,15.80
2018-07-24T04:30:22.386Z,15.80
2018-07-24T04:32:50.588Z,15.80
2018-07-24T04:35:18.752Z,15.80
2018-07-24T04:37:47.036Z,15.80
2018-07-24T04:40:15.276Z,15.90
2018-07-24T04:42:43.456Z,15.90
2018-07-24T04:45:11.649Z,16.00
2018-07-24T04:47:39.811Z,16.00
2018-07-24T04:50:08.048Z,15.90
2018-07-24T04:52:36.213Z,16.00
2018-07-24T04:55:04.452Z,16.00
2018-07-24T04:57:32.649Z,16.10
2018-07-24T05:00:00.829Z,16.20
2018-07-24T05:02:29.026Z,16.40
2018-07-24T05:04:57.197Z,16.40
2018-07-24T05:07:25.430Z,16.50
2018-07-24T05:09:53.628Z,16.60
2018-07-24T05:12:21.794Z,16.70
2018-07-24T05:14:50.009Z,16.80
2018-07-24T05:17:18.175Z,17.00
2018-07-24T05:19:46.375Z,17.10
2018-07-24T05:22:15.224Z,17.30
2018-07-24T05:24:43.869Z,17.40
2018-07-24T05:27:12.061Z,17.60
2018-07-24T05:29:40.260Z,17.80
2018-07-24T05:32:08.688Z,17.90
2018-07-24T05:34:36.897Z,17.90
2018-07-24T05:37:05.119Z,18.10
2018-07-24T05:39:33.312Z,18.20
2018-07-24T05:42:01.473Z,18.30
2018-07-24T05:44:29.693Z,18.60
2018-07-24T05:46:57.900Z,18.90
2018-07-24T05:49:26.110Z,18.90
2018-07-24T05:51:54.342Z,19.00
2018-07-24T05:54:22.655Z,19.20
2018-07-24T05:56:51.346Z,19.40
2018-07-24T05:59:20.264Z,19.60
2018-07-24T06:01:49.007Z,19.70
2018-07-24T06:04:17.646Z,19.80
2018-07-24T06:06:45.841Z,20.00
2018-07-24T06:09:14.043Z,19.90
2018-07-24T06:11:42.233Z,19.90
2018-07-24T06:14:10.441Z,20.00
2018-07-24T06:16:38.620Z,20.00
2018-07-24T06:19:06.832Z,20.30
2018-07-24T06:21:35.033Z,20.40
2018-07-24T06:24:03.292Z,20.50
2018-07-24T06:26:31.484Z,20.50
2018-07-24T06:28:59.676Z,20.80
2018-07-24T06:31:28.047Z,21.00
2018-07-24T06:33:56.332Z,21.20
2018-07-24T06:36:24.641Z,21.20
2018-07-24T06:38:52.788Z,21.40
2018-07-24T06:41:20.983Z,21.90
2018-07-24T06:43:49.173Z,22.00
2018-07-24T06:46:17.445Z,22.20
2018-07-24T06:48:45.625Z,22.40
2018-07-24T06:51:13.885Z,22.60
2018-07-24T06:53:42.066Z,22.60
2018-07-24T06:56:10.264Z,22.60
2018-07-24T06:58:38.424Z,22.70
2018-07-24T07:01:06.773Z,22.60
2018-07-24T07:03:34.945Z,22.90
2018-07-24T07:06:03.181Z,22.80
2018-07-24T07:08:31.342Z,22.70
2018-07-24T07:10:59.544Z,22.90
2018-07-24T07:13:27.805Z,23.00
2018-07-24T07:15:55.933Z,23.00
2018-07-24T07:18:24.138Z,23.10
2018-07-24T07:20:52.331Z,23.20
2018-07-24T07:23:20.574Z,23.40
2018-07-24T07:25:48.817Z,23.20
2018-07-24T07:28:17.016Z,23.60
2018-07-24T07:30:45.184Z,23.70
2018-07-24T07:33:13.392Z,23.70
2018-07-24T07:35:41.640Z,23.30
2018-07-24T07:38:09.808Z,23.60
2018-07-24T07:40:37.985Z,23.90
2018-07-24T07:43:06.168Z,24.10
2018-07-24T07:45:34.377Z,24.30
2018-07-24T07:48:02.577Z,24.30
2018-07-24T07:50:30.755Z,24.30
2018-07-24T07:52:58.987Z,24.20
2018-07-24T07:55:27.160Z,24.20
2018-07-24T07:57:55.444Z,23.90
2018-07-24T08:00:23.684Z,23.70
2018-07-24T08:02:52.146Z,23.90
2018-07-24T08:05:20.349Z,24.20
2018-07-24T08:07:48.505Z,24.40
2018-07-24T08:10:16.701Z,24.70
2018-07-24T08:12:44.920Z,24.90
2018-07-24T08:15:13.073Z,25.30
2018-07-24T08:17:41.337Z,25.50
2018-07-24T08:20:09.548Z,25.50
2018-07-24T08:22:37.705Z,25.40
2018-07-24T08:25:06.276Z,25.30
2018-07-24T08:27:34.516Z,25.40
2018-07-24T08:30:02.833Z,25.50
2018-07-24T08:32:31.040Z,25.30
2018-07-24T08:34:59.193Z,25.10
2018-07-24T08:37:27.527Z,25.30
2018-07-24T08:39:55.839Z,25.60
2018-07-24T08:42:24.114Z,25.80
2018-07-24T08:44:52.365Z,25.90
2018-07-24T08:47:20.554Z,25.50
2018-07-24T08:49:48.802Z,25.80
2018-07-24T08:52:17.053Z,26.10
2018-07-24T08:54:45.492Z,26.20
2018-07-24T08:57:13.475Z,26.50
2018-07-24T08:59:41.640Z,26.60
2018-07-24T09:02:09.837Z,26.70
2018-07-24T09:04:38.104Z,26.50
2018-07-24T09:07:06.315Z,26.70
2018-07-24T09:09:34.533Z,26.50
2018-07-24T09:12:02.757Z,26.80
2018-07-24T09:14:30.970Z,27.10
2018-07-24T09:16:59.132Z,27.20
2018-07-24T09:19:27.408Z,27.20
2018-07-24T09:21:55.600Z,26.90
2018-07-24T09:24:23.809Z,27.00
2018-07-24T09:26:52.073Z,27.10
2018-07-24T09:29:20.356Z,26.90
2018-07-24T09:31:48.560Z,26.30
2018-07-24T09:34:16.737Z,26.50
2018-07-24T09:36:44.977Z,26.80
2018-07-24T09:41:41.114Z,27.10
2018-07-24T09:44:09.289Z,27.30
2018-07-24T09:46:37.437Z,27.40
2018-07-24T09:49:05.764Z,27.50
2018-07-24T09:51:33.987Z,27.40
2018-07-24T09:54:02.189Z,27.40
2018-07-24T09:56:30.500Z,27.60
2018-07-24T09:58:58.637Z,27.50
2018-07-24T10:01:35.536Z,27.40
2018-07-24T10:04:04.324Z,27.50
2018-07-24T10:06:33.517Z,27.50
2018-07-24T10:09:01.743Z,27.70
2018-07-24T10:11:29.893Z,27.60
2018-07-24T10:13:58.120Z,27.50
2018-07-24T10:16:26.322Z,27.60
2018-07-24T10:18:54.564Z,27.90
2018-07-24T10:21:22.760Z,28.10
2018-07-24T10:23:50.953Z,27.60
2018-07-24T10:26:19.193Z,27.50
2018-07-24T10:28:47.695Z,27.50
2018-07-24T10:31:15.948Z,27.80
2018-07-24T10:33:44.222Z,28.00
2018-07-24T10:36:12.494Z,28.00
2018-07-24T10:38:40.755Z,28.30
2018-07-24T10:41:08.971Z,28.40
2018-07-24T10:43:37.144Z,28.20
2018-07-24T10:46:05.429Z,27.90
2018-07-24T10:48:33.608Z,28.20
2018-07-24T10:51:01.817Z,28.50
2018-07-24T10:53:30.212Z,28.50
2018-07-24T10:55:58.398Z,28.40
2018-07-24T10:58:26.588Z,28.40
2018-07-24T11:00:54.788Z,28.60
2018-07-24T11:03:23.004Z,28.70
2018-07-24T11:05:51.228Z,28.40
2018-07-24T11:08:19.437Z,28.10
2018-07-24T11:10:47.637Z,27.80
2018-07-24T11:13:15.807Z,27.80
2018-07-24T11:15:44.040Z,28.20
2018-07-24T11:18:12.336Z,28.40
2018-07-24T11:20:40.549Z,28.60
2018-07-24T11:23:08.822Z,28.60
2018-07-24T11:25:36.955Z,28.60
2018-07-24T11:28:05.245Z,28.70
2018-07-24T11:30:33.543Z,28.80
2018-07-24T11:33:02.166Z,29.00
2018-07-24T11:35:30.430Z,29.10
2018-07-24T11:37:58.593Z,28.90
2018-07-24T11:40:26.792Z,28.50
2018-07-24T11:42:54.968Z,28.80
2018-07-24T11:45:23.178Z,28.80
2018-07-24T11:47:51.376Z,29.00
2018-07-24T11:50:19.520Z,29.20
2018-07-24T11:52:47.813Z,29.20
2018-07-24T11:55:16.008Z,29.50
2018-07-24T11:57:44.267Z,29.80
2018-07-24T12:00:12.477Z,29.70
2018-07-24T12:02:40.662Z,29.90
2018-07-24T12:05:08.860Z,30.00
2018-07-24T12:07:37.056Z,29.70
2018-07-24T12:10:05.597Z,30.00
2018-07-24T12:12:33.960Z,30.20
2018-07-24T12:15:02.159Z,30.40
2018-07-24T12:17:30.373Z,30.10
2018-07-24T12:19:58.591Z,30.10
2018-07-24T12:22:26.760Z,30.30
2018-07-24T12:24:54.964Z,30.20
2018-07-24T12:27:23.117Z,29.50
2018-07-24T12:29:51.309Z,29.40
2018-07-24T12:32:19.521Z,29.80
2018-07-24T12:34:47.705Z,29.80
2018-07-24T12:37:15.944Z,29.80
2018-07-24T12:39:44.125Z,30.00
2018-07-24T12:44:40.300Z,30.00
2018-07-24T12:47:08.545Z,30.30
2018-07-24T12:49:36.752Z,30.30
2018-07-24T12:52:04.936Z,30.60
2018-07-24T12:54:33.156Z,30.30
2018-07-24T12:57:01.386Z,30.30
2018-07-24T12:59:29.606Z,30.40
2018-07-24T13:04:25.828Z,30.90
2018-07-24T13:06:54.061Z,31.00
2018-07-24T13:09:22.283Z,31.20
2018-07-24T13:11:50.558Z,31.40
2018-07-24T13:14:18.812Z,31.50
2018-07-24T13:16:46.989Z,31.40
2018-07-24T13:19:15.230Z,30.90
2018-07-24T13:21:43.481Z,30.00
2018-07-24T13:24:11.736Z,30.00
2018-07-24T13:26:39.969Z,29.70
2018-07-24T13:29:08.133Z,30.10
2018-07-24T13:31:36.373Z,30.50
2018-07-24T13:34:04.580Z,30.40
2018-07-24T13:36:32.837Z,30.10
2018-07-24T13:39:01.027Z,30.40
2018-07-24T13:41:29.184Z,30.60
2018-07-24T13:43:57.414Z,30.80
2018-07-24T13:46:25.660Z,31.20
2018-07-24T13:48:53.848Z,31.40
2018-07-24T13:51:22.081Z,31.30
2018-07-24T13:53:50.256Z,31.10
2018-07-24T13:56:18.508Z,31.00
2018-07-24T13:58:46.730Z,31.00
2018-07-24T14:01:14.893Z,31.20
2018-07-24T14:03:43.114Z,30.90
2018-07-24T14:06:11.372Z,30.50
2018-07-24T14:08:39.565Z,30.30
2018-07-24T14:11:07.828Z,30.50
2018-07-24T14:13:35.984Z,30.50
2018-07-24T14:16:04.183Z,30.50
2018-07-24T14:18:32.342Z,30.70
2018-07-24T14:21:00.518Z,31.00
2018-07-24T14:23:28.817Z,30.80
2018-07-24T14:25:57.041Z,30.90
2018-07-24T14:28:25.259Z,30.80
2018-07-24T14:30:53.465Z,31.00
2018-07-24T14:33:21.664Z,30.60
2018-07-24T14:35:49.869Z,30.00
2018-07-24T14:38:18.085Z,30.10
2018-07-24T14:40:46.293Z,30.00
2018-07-24T14:43:14.451Z,30.10
2018-07-24T14:45:42.629Z,30.30
2018-07-24T14:48:10.864Z,30.70
2018-07-24T14:50:39.120Z,31.00
2018-07-24T14:53:07.393Z,31.00
2018-07-24T14:55:35.545Z,30.50
2018-07-24T14:58:03.785Z,30.50
2018-07-24T15:00:32.000Z,30.40
2018-07-24T15:03:00.172Z,30.20
2018-07-24T15:05:28.452Z,30.50
2018-07-24T15:07:56.764Z,30.60
2018-07-24T15:10:25.010Z,30.10
2018-07-24T15:12:53.231Z,30.00
2018-07-24T15:15:21.407Z,29.70
2018-07-24T15:17:49.636Z,29.90
2018-07-24T15:20:17.857Z,29.80
2018-07-24T15:22:46.066Z,29.60
2018-07-24T15:25:14.319Z,29.60
2018-07-24T15:27:42.467Z,29.50
2018-07-24T15:30:10.767Z,29.40
2018-07-24T15:32:38.945Z,29.60
2018-07-24T15:37:35.317Z,29.30
2018-07-24T15:40:03.801Z,29.30
2018-07-24T15:42:32.114Z,29.40
2018-07-24T15:45:00.332Z,29.30
2018-07-24T15:47:28.555Z,29.30
2018-07-24T15:49:56.981Z,29.00
2018-07-24T15:52:25.204Z,28.90
2018-07-24T15:54:53.417Z,28.80
2018-07-24T15:57:21.616Z,28.90
2018-07-24T15:59:50.728Z,28.90
2018-07-24T16:02:19.046Z,28.80
2018-07-24T16:04:47.228Z,28.30
2018-07-24T16:07:15.445Z,28.10
2018-07-24T16:09:43.617Z,28.30
2018-07-24T16:12:11.849Z,28.30
2018-07-24T16:14:40.021Z,28.40
2018-07-24T16:17:08.676Z,28.40
2018-07-24T16:19:36.961Z,28.10
2018-07-24T16:22:05.244Z,28.00
2018-07-24T16:24:33.515Z,27.90
2018-07-24T16:27:01.677Z,27.90
2018-07-24T16:29:30.398Z,27.90
2018-07-24T16:31:58.693Z,27.70
2018-07-24T16:36:55.121Z,27.60
2018-07-24T16:39:23.365Z,27.60
2018-07-24T16:41:51.597Z,27.60
2018-07-24T16:44:19.940Z,27.40
2018-07-24T16:46:48.128Z,27.40
2018-07-24T16:49:16.321Z,27.30
2018-07-24T16:51:44.641Z,27.20
2018-07-24T16:54:12.835Z,27.20
2018-07-24T16:56:41.067Z,27.20
2018-07-24T16:59:09.245Z,27.30
2018-07-24T17:01:38.272Z,27.20
2018-07-24T17:04:06.550Z,27.20
2018-07-24T17:06:34.730Z,27.10
2018-07-24T17:09:03.489Z,27.00
2018-07-24T17:11:31.653Z,27.00
2018-07-24T17:13:59.902Z,27.00
2018-07-24T17:16:28.140Z,26.90
2018-07-24T17:18:56.312Z,26.90
2018-07-24T17:21:24.517Z,26.90
2018-07-24T17:23:52.714Z,26.90
2018-07-24T17:26:20.992Z,27.00
2018-07-24T17:28:49.153Z,26.90
2018-07-24T17:31:17.326Z,26.90
2018-07-24T17:33:45.500Z,26.80
2018-07-24T17:36:13.702Z,26.80
2018-07-24T17:38:41.888Z,26.80
2018-07-24T17:41:10.121Z,26.70
2018-07-24T17:43:38.364Z,26.70
2018-07-24T17:46:06.584Z,26.70
2018-07-24T17:48:34.943Z,26.70
2018-07-24T17:51:03.229Z,26.60
2018-07-24T17:53:31.459Z,26.60
2018-07-24T17:55:59.741Z,26.60
2018-07-24T17:58:27.921Z,26.50
2018-07-24T18:00:56.132Z,26.50
2018-07-24T18:03:24.345Z,26.40
2018-07-24T18:05:52.564Z,26.30
2018-07-24T18:08:20.765Z,26.30
2018-07-24T18:10:48.960Z,26.20
2018-07-24T18:13:17.121Z,26.10
2018-07-24T18:15:45.341Z,26.10
2018-07-24T18:18:13.602Z,26.00
2018-07-24T18:20:43.219Z,25.90
2018-07-24T18:23:11.463Z,25.90
2018-07-24T18:25:40.238Z,25.80
2018-07-24T18:28:08.434Z,25.70
2018-07-24T18:30:36.663Z,25.60
2018-07-24T18:33:04.863Z,25.50
2018-07-24T18:35:33.045Z,25.40
2018-07-24T18:38:01.224Z,25.30
2018-07-24T18:40:29.453Z,25.20
2018-07-24T18:42:57.658Z,25.10
2018-07-24T18:45:25.911Z,25.10
2018-07-24T18:47:54.101Z,25.00
2018-07-24T18:50:22.285Z,24.90
2018-07-24T18:52:50.746Z,24.90
2018-07-24T18:55:18.953Z,24.80
2018-07-24T18:57:47.218Z,24.80
2018-07-24T19:00:15.412Z,24.70
2018-07-24T19:02:43.999Z,24.60
2018-07-24T19:05:12.295Z,24.60
2018-07-24T19:07:40.533Z,24.50
2018-07-24T19:10:08.765Z,24.40
2018-07-24T19:12:36.959Z,24.30
2018-07-24T19:15:06.292Z,24.20
2018-07-24T19:17:34.845Z,24.10
2018-07-24T19:20:03.041Z,24.10
2018-07-24T19:22:32.148Z,24.00
2018-07-24T19:25:01.131Z,24.10
2018-07-24T19:27:29.589Z,24.00
2018-07-24T19:29:57.793Z,23.90
2018-07-24T19:32:26.018Z,23.90
2018-07-24T19:34:54.942Z,23.80
2018-07-24T19:37:23.266Z,23.70
2018-07-24T19:39:52.968Z,23.50
2018-07-24T19:42:21.762Z,23.30
2018-07-24T19:44:50.137Z,23.30
2018-07-24T19:47:18.788Z,23.30
2018-07-24T19:49:46.988Z,23.20
2018-07-24T19:52:15.277Z,23.00
2018-07-24T19:54:43.466Z,22.90
2018-07-24T19:57:12.660Z,22.90
2018-07-24T19:59:40.870Z,22.80
2018-07-24T20:02:09.117Z,22.80
2018-07-24T20:04:37.393Z,22.70
2018-07-24T20:07:06.029Z,22.70
2018-07-24T20:09:34.244Z,22.70
2018-07-24T20:12:02.474Z,22.70
2018-07-24T20:14:30.639Z,22.70
2018-07-24T20:16:58.861Z,22.70
2018-07-24T20:19:27.038Z,22.60
2018-07-24T20:21:55.249Z,22.50
2018-07-24T20:24:23.466Z,22.50
2018-07-24T20:26:51.660Z,22.30
2018-07-24T20:29:20.281Z,22.30
2018-07-24T20:31:48.484Z,22.30
2018-07-24T20:34:16.700Z,22.20
2018-07-24T20:36:45.288Z,22.20
2018-07-24T20:39:13.537Z,22.10
2018-07-24T20:44:10.384Z,21.80
2018-07-24T20:46:38.618Z,21.80
2018-07-24T20:49:06.793Z,21.90
2018-07-24T20:51:35.000Z,22.00
2018-07-24T20:54:03.253Z,21.90
2018-07-24T20:56:31.472Z,21.90
2018-07-24T20:58:59.636Z,21.90
2018-07-24T21:01:27.812Z,22.00
2018-07-24T21:03:56.025Z,21.90
2018-07-24T21:06:25.166Z,21.80
2018-07-24T21:08:53.370Z,21.90
2018-07-24T21:11:21.736Z,21.90
2018-07-24T21:13:49.920Z,21.90
2018-07-24T21:16:18.133Z,21.80
2018-07-24T21:18:46.313Z,21.80
2018-07-24T21:21:14.500Z,21.80
2018-07-24T21:23:42.691Z,21.80
2018-07-24T21:26:10.924Z,21.80
2018-07-24T21:28:39.273Z,21.90
2018-07-24T21:31:07.645Z,21.90
2018-07-24T21:33:35.836Z,21.80
2018-07-24T21:36:04.058Z,21.50
2018-07-24T21:38:32.444Z,21.40
2018-07-24T21:41:01.137Z,21.30
2018-07-24T21:43:29.769Z,21.20
2018-07-24T21:45:58.538Z,20.90
2018-07-24T21:48:27.235Z,20.70
2018-07-24T21:50:55.974Z,20.70
2018-07-24T21:53:24.615Z,20.60
2018-07-24T21:55:53.336Z,20.60
2018-07-24T21:58:22.086Z,20.60
2018-07-24T22:00:56.069Z,20.50
2018-07-24T22:03:24.279Z,20.50
2018-07-24T22:05:52.461Z,20.50
2018-07-24T22:08:20.645Z,20.50
2018-07-24T22:10:48.829Z,20.60
2018-07-24T22:13:17.577Z,20.70
2018-07-24T22:15:45.922Z,20.70
2018-07-24T22:18:14.128Z,20.70
2018-07-24T22:20:42.366Z,20.70
2018-07-24T22:23:11.263Z,20.70
2018-07-24T22:25:39.633Z,20.80
2018-07-24T22:28:07.832Z,20.60
2018-07-24T22:30:35.991Z,20.60
2018-07-24T22:33:04.213Z,20.50
2018-07-24T22:35:32.397Z,20.40
2018-07-24T22:38:00.608Z,20.40
2018-07-24T22:40:28.780Z,20.20
2018-07-24T22:42:56.992Z,20.30
2018-07-24T22:45:25.224Z,20.30
2018-07-24T22:47:53.467Z,20.20
2018-07-24T22:50:21.665Z,20.10
2018-07-24T22:52:49.912Z,20.00
2018-07-24T22:55:18.452Z,20.10
2018-07-24T22:57:46.612Z,20.20
2018-07-24T23:00:14.800Z,20.20
2018-07-24T23:02:42.997Z,20.30
2018-07-24T23:05:11.172Z,20.20
2018-07-24T23:07:39.401Z,20.10
2018-07-24T23:10:07.626Z,20.10
2018-07-24T23:12:35.923Z,20.00
2018-07-24T23:15:04.725Z,20.00
2018-07-24T23:17:32.884Z,20.00
2018-07-24T23:20:01.066Z,20.00
2018-07-24T23:22:29.278Z,19.90
2018-07-24T23:24:57.440Z,20.00
2018-07-24T23:27:25.675Z,20.10
2018-07-24T23:29:53.848Z,20.10
2018-07-24T23:32:22.057Z,20.10
2018-07-24T23:34:50.209Z,20.10
2018-07-24T23:37:18.446Z,20.10
2018-07-24T23:39:46.643Z,20.00
2018-07-24T23:42:14.823Z,20.00
2018-07-24T23:44:43.012Z,19.90
2018-07-24T23:47:11.424Z,19.90
2018-07-24T23:49:39.620Z,19.90
2018-07-24T23:52:07.821Z,19.90
2018-07-24T23:54:36.085Z,19.90
2018-07-24T23:57:04.290Z,19.90
2018-07-24T23:59:32.448Z,19.70
